Map

Track Data

SID SEASON NUMBER BASIN SUBBASIN NAME ISO_TIME NATURE LAT LON WMO_WIND WMO_PRES WMO_AGENCY TRACK_TYPE DIST2LAND LANDFALL IFLAG USA_AGENCY USA_ATCF_ID USA_LAT USA_LON USA_RECORD USA_STATUS USA_WIND USA_PRES USA_SSHS USA_R34_NE USA_R34_SE USA_R34_SW USA_R34_NW USA_R50_NE USA_R50_SE USA_R50_SW USA_R50_NW USA_R64_NE USA_R64_SE USA_R64_SW USA_R64_NW USA_POCI USA_ROCI USA_RMW USA_EYE TOKYO_LAT TOKYO_LON TOKYO_GRADE TOKYO_WIND TOKYO_PRES TOKYO_R50_DIR TOKYO_R50_LONG TOKYO_R50_SHORT TOKYO_R30_DIR TOKYO_R30_LONG TOKYO_R30_SHORT TOKYO_LAND CMA_LAT CMA_LON CMA_CAT CMA_WIND CMA_PRES HKO_LAT HKO_LON HKO_CAT HKO_WIND HKO_PRES NEWDELHI_LAT NEWDELHI_LON NEWDELHI_GRADE NEWDELHI_WIND NEWDELHI_PRES NEWDELHI_CI NEWDELHI_DP NEWDELHI_POCI REUNION_LAT REUNION_LON REUNION_TYPE REUNION_WIND REUNION_PRES REUNION_TNUM REUNION_CI REUNION_RMW REUNION_R34_NE REUNION_R34_SE REUNION_R34_SW REUNION_R34_NW REUNION_R50_NE REUNION_R50_SE REUNION_R50_SW REUNION_R50_NW REUNION_R64_NE REUNION_R64_SE REUNION_R64_SW REUNION_R64_NW BOM_LAT BOM_LON BOM_TYPE BOM_WIND BOM_PRES BOM_TNUM BOM_CI BOM_RMW BOM_R34_NE BOM_R34_SE BOM_R34_SW BOM_R34_NW BOM_R50_NE BOM_R50_SE BOM_R50_SW BOM_R50_NW BOM_R64_NE BOM_R64_SE BOM_R64_SW BOM_R64_NW BOM_ROCI BOM_POCI BOM_EYE BOM_POS_METHOD BOM_PRES_METHOD NADI_LAT NADI_LON NADI_CAT NADI_WIND NADI_PRES WELLINGTON_LAT WELLINGTON_LON WELLINGTON_WIND WELLINGTON_PRES DS824_LAT DS824_LON DS824_STAGE DS824_WIND DS824_PRES TD9636_LAT TD9636_LON TD9636_STAGE TD9636_WIND TD9636_PRES TD9635_LAT TD9635_LON TD9635_WIND TD9635_PRES TD9635_ROCI NEUMANN_LAT NEUMANN_LON NEUMANN_CLASS NEUMANN_WIND NEUMANN_PRES MLC_LAT MLC_LON MLC_CLASS MLC_WIND MLC_PRES USA_GUST BOM_GUST BOM_GUST_PER REUNION_GUST REUNION_GUST_PER USA_SEAHGT USA_SEARAD_NE USA_SEARAD_SE USA_SEARAD_SW USA_SEARAD_NW STORM_SPEED STORM_DIR
1856232N33285 1856 7 NA NA NOT_NAMED 1856-08-19 00:00:00 TS 32.5000 -75.5000 50 hurdat_atl main 262 192 O_____________ hurdat_atl AL031856 32.5000 -75.5000 TS 50 0 14 342
1856232N33285 1856 7 NA NA NOT_NAMED 1856-08-19 03:00:00 TS 33.1614 -75.7570 main 179 110 P_____________ AL031856 33.1614 -75.7570 TS 50 0 14 342
1856232N33285 1856 7 NA NA NOT_NAMED 1856-08-19 06:00:00 TS 33.8000 -76.0000 50 hurdat_atl main 110 43 O_____________ hurdat_atl AL031856 33.8000 -76.0000 TS 50 0 13 343
1856232N33285 1856 7 NA NA NOT_NAMED 1856-08-19 09:00:00 TS 34.4036 -76.2269 main 43 9 P_____________ AL031856 34.4036 -76.2269 TS 50 0 13 342
1856232N33285 1856 7 NA NA NOT_NAMED 1856-08-19 11:00:00 TS 34.8000 -76.4000 50 hurdat_atl main 9 0 O_____________ hurdat_atl AL031856 34.8000 -76.4000 L TS 50 0 13 339
1856232N33285 1856 7 NA NA NOT_NAMED 1856-08-19 12:00:00 TS 35.0000 -76.5000 50 hurdat_atl main 0 0 O_____________ hurdat_atl AL031856 35.0000 -76.5000 TS 50 0 11 352
1856232N33285 1856 7 NA NA NOT_NAMED 1856-08-19 15:00:00 TS 35.5270 -76.5147 main 0 0 P_____________ AL031856 35.5270 -76.5147 TS 50 0 10 9
1856232N33285 1856 7 NA NA NOT_NAMED 1856-08-19 18:00:00 TS 36.0000 -76.3000 50 hurdat_atl main 11 0 O_____________ hurdat_atl AL031856 36.0000 -76.3000 TS 50 0 10 15
1856232N33285 1856 7 NA NA NOT_NAMED 1856-08-19 21:00:00 TS 36.4998 -76.1869 main 0 0 P_____________ AL031856 36.4998 -76.1869 TS 50 0 10 14
1856232N33285 1856 7 NA NA NOT_NAMED 1856-08-20 00:00:00 TS 37.0000 -76.0000 50 hurdat_atl main 14 0 O_____________ hurdat_atl AL031856 37.0000 -76.0000 TS 50 0 11 21
1856232N33285 1856 7 NA NA NOT_NAMED 1856-08-20 03:00:00 TS 37.4999 -75.7022 main 0 0 P_____________ AL031856 37.4999 -75.7022 TS 50 0 11 29
1856232N33285 1856 7 NA NA NOT_NAMED 1856-08-20 06:00:00 TS 38.0000 -75.3000 50 hurdat_atl main 8 0 O_____________ hurdat_atl AL031856 38.0000 -75.3000 TS 50 0 12 34
1856232N33285 1856 7 NA NA NOT_NAMED 1856-08-20 09:00:00 TS 38.5147 -74.8447 main 26 25 P_____________ AL031856 38.5147 -74.8447 TS 50 0 13 38
1856232N33285 1856 7 NA NA NOT_NAMED 1856-08-20 12:00:00 TS 39.0000 -74.3000 50 hurdat_atl main 36 36 O_____________ hurdat_atl AL031856 39.0000 -74.3000 TS 50 0 13 45
1856232N33285 1856 7 NA NA NOT_NAMED 1856-08-20 15:00:00 TS 39.4297 -73.6870 main 52 48 P_____________ AL031856 39.4297 -73.6870 TS 50 0 13 51
1856232N33285 1856 7 NA NA NOT_NAMED 1856-08-20 18:00:00 TS 39.8000 -73.0000 50 hurdat_atl main 91 78 O_____________ hurdat_atl AL031856 39.8000 -73.0000 TS 50 0 13 57
1856232N33285 1856 7 NA NA NOT_NAMED 1856-08-20 21:00:00 TS 40.1290 -72.3017 main 81 74 P_____________ AL031856 40.1290 -72.3017 TS 50 0 13 62
1856232N33285 1856 7 NA NA NOT_NAMED 1856-08-21 00:00:00 TS 40.4000 -71.5000 50 hurdat_atl main 102 100 O_____________ hurdat_atl AL031856 40.4000 -71.5000 TS 50 0 14 69
1856232N33285 1856 7 NA NA NOT_NAMED 1856-08-21 03:00:00 TS 40.6289 -70.5746 main 100 90 P_____________ AL031856 40.6289 -70.5746 TS 50 0 16 75
1856232N33285 1856 7 NA NA NOT_NAMED 1856-08-21 06:00:00 TS 40.8000 -69.5000 50 hurdat_atl main 108 108 O_____________ hurdat_atl AL031856 40.8000 -69.5000 TS 50 0 18 81
1856232N33285 1856 7 NA NA NOT_NAMED 1856-08-21 09:00:00 TS 40.9182 -68.2880 main 167 167 P_____________ AL031856 40.9182 -68.2880 TS 50 0 19 84
1856232N33285 1856 7 NA NA NOT_NAMED 1856-08-21 12:00:00 TS 41.0000 -67.0000 50 hurdat_atl main 261 O_____________ hurdat_atl AL031856 41.0000 -67.0000 TS 50 0 19 85

About IBTrACS Database

This database is a web-friendly format of International Best Track Archive for Climate Stewardship (IBTrACS), a global best track data archive curated by NOAA dating back to 1842.

Updated: 2021-10-27